createdAt,value
2018-09-17T00:04:03.907Z,22.81
2018-09-17T00:09:14.829Z,22.77
2018-09-17T00:14:18.116Z,22.78
2018-09-17T00:19:21.401Z,22.75
2018-09-17T00:24:24.690Z,22.70
2018-09-17T00:29:28.003Z,22.69
2018-09-17T00:34:31.286Z,22.66
2018-09-17T00:39:34.555Z,22.63
2018-09-17T00:44:37.833Z,22.59
2018-09-17T00:49:41.114Z,22.57
2018-09-17T00:54:44.386Z,22.59
2018-09-17T00:59:47.662Z,22.53
2018-09-17T01:04:50.990Z,22.46
2018-09-17T01:09:54.301Z,22.47
2018-09-17T01:14:57.584Z,22.47
2018-09-17T01:20:00.875Z,22.45
2018-09-17T01:25:04.180Z,22.41
2018-09-17T01:30:07.837Z,22.40
2018-09-17T01:35:11.113Z,22.37
2018-09-17T01:40:14.386Z,22.32
2018-09-17T01:45:17.662Z,22.34
2018-09-17T01:50:20.942Z,22.28
2018-09-17T01:55:24.222Z,22.33
2018-09-17T02:00:27.521Z,22.28
2018-09-17T02:05:30.814Z,22.28
2018-09-17T02:10:34.090Z,22.27
2018-09-17T02:15:37.382Z,22.24
2018-09-17T02:20:40.689Z,22.23
2018-09-17T02:25:43.979Z,22.23
2018-09-17T02:30:47.258Z,22.22
2018-09-17T02:35:50.563Z,22.20
2018-09-17T02:40:53.866Z,22.17
2018-09-17T02:45:57.153Z,22.14
2018-09-17T02:51:00.441Z,22.11
2018-09-17T02:56:03.731Z,22.02
2018-09-17T03:01:07.003Z,21.98
2018-09-17T03:06:10.296Z,22.00
2018-09-17T03:11:13.574Z,22.03
2018-09-17T03:16:16.855Z,22.08
2018-09-17T03:21:20.133Z,22.08
2018-09-17T03:26:23.626Z,22.04
2018-09-17T03:31:26.990Z,22.08
2018-09-17T03:36:30.282Z,22.06
2018-09-17T03:41:33.571Z,22.05
2018-09-17T03:46:36.869Z,22.04
2018-09-17T03:51:40.179Z,22.14
2018-09-17T03:56:43.454Z,22.15
2018-09-17T04:01:46.730Z,22.17
2018-09-17T04:06:50.123Z,22.17
2018-09-17T04:11:53.403Z,22.13
2018-09-17T04:16:56.685Z,22.12
2018-09-17T04:21:59.963Z,22.10
2018-09-17T04:27:03.256Z,22.08
2018-09-17T04:32:06.538Z,22.09
2018-09-17T04:37:09.826Z,22.13
2018-09-17T04:42:13.114Z,22.09
2018-09-17T04:47:16.389Z,22.05
2018-09-17T04:52:19.774Z,22.09
2018-09-17T04:57:23.107Z,22.07
2018-09-17T05:02:26.398Z,21.98
2018-09-17T05:07:29.678Z,21.91
2018-09-17T05:12:32.967Z,21.95
2018-09-17T05:17:36.246Z,21.90
2018-09-17T05:22:39.527Z,21.88
2018-09-17T05:27:42.822Z,21.92
2018-09-17T05:32:46.190Z,21.90
2018-09-17T05:37:49.462Z,21.89
2018-09-17T05:42:52.749Z,21.85
2018-09-17T05:47:56.026Z,21.87
2018-09-17T05:52:59.299Z,21.77
2018-09-17T05:58:02.602Z,21.77
2018-09-17T06:03:05.914Z,21.82
2018-09-17T06:08:09.200Z,21.87
2018-09-17T06:13:12.478Z,21.86
2018-09-17T06:18:15.828Z,21.81
2018-09-17T06:23:19.124Z,21.85
2018-09-17T06:28:22.402Z,21.84
2018-09-17T06:33:25.679Z,21.85
2018-09-17T06:38:28.953Z,21.87
2018-09-17T06:43:32.257Z,21.88
2018-09-17T06:48:35.679Z,21.92
2018-09-17T06:53:38.996Z,21.99
2018-09-17T06:58:42.259Z,22.03
2018-09-17T07:03:45.537Z,22.11
2018-09-17T07:08:48.819Z,22.14
2018-09-17T07:13:52.102Z,22.24
2018-09-17T07:18:55.374Z,22.21
2018-09-17T07:23:58.672Z,22.23
2018-09-17T07:29:02.230Z,22.26
2018-09-17T07:34:05.517Z,22.28
2018-09-17T07:39:10.278Z,22.23
2018-09-17T07:44:13.562Z,22.10
2018-09-17T07:49:16.846Z,22.14
2018-09-17T07:54:20.173Z,22.24
2018-09-17T07:59:23.445Z,22.28
2018-09-17T08:04:26.725Z,22.19
2018-09-17T08:09:30.003Z,22.12
2018-09-17T08:14:33.330Z,22.18
2018-09-17T08:19:36.667Z,22.17
2018-09-17T08:24:39.923Z,22.06
2018-09-17T08:29:43.202Z,22.17
2018-09-17T08:34:46.485Z,22.21
2018-09-17T08:39:49.775Z,22.23
2018-09-17T08:44:53.075Z,22.39
2018-09-17T08:49:56.360Z,22.35
2018-09-17T08:55:05.413Z,22.27
2018-09-17T09:00:14.694Z,22.32
2018-09-17T09:05:23.288Z,22.36
2018-09-17T09:10:32.083Z,22.48
2018-09-17T09:15:39.419Z,22.54
2018-09-17T09:20:42.726Z,22.56
2018-09-17T09:30:48.398Z,22.66
2018-09-17T09:35:51.690Z,22.71
2018-09-17T09:40:55.026Z,22.75
2018-09-17T09:45:58.329Z,22.73
2018-09-17T09:51:01.651Z,22.82
2018-09-17T09:56:04.954Z,22.86
2018-09-17T10:06:16.173Z,22.96
2018-09-17T10:11:24.898Z,22.97
2018-09-17T10:16:28.187Z,23.00
2018-09-17T10:21:31.483Z,23.03
2018-09-17T10:26:34.766Z,23.06
2018-09-17T10:31:38.038Z,23.09
2018-09-17T10:36:41.578Z,23.12
2018-09-17T10:41:44.859Z,23.13
2018-09-17T10:46:48.144Z,23.14
2018-09-17T10:51:51.452Z,23.15
2018-09-17T10:56:54.730Z,23.19
2018-09-17T11:01:58.023Z,23.19
2018-09-17T11:07:01.310Z,23.21
2018-09-17T11:12:04.605Z,23.24
2018-09-17T11:17:07.887Z,23.26
2018-09-17T11:22:11.178Z,23.29
2018-09-17T11:27:14.458Z,23.30
2018-09-17T11:32:17.743Z,23.35
2018-09-17T11:37:21.025Z,23.36
2018-09-17T11:42:24.310Z,23.37
2018-09-17T11:47:27.586Z,23.41
2018-09-17T11:52:30.870Z,23.42
2018-09-17T11:57:34.150Z,23.45
2018-09-17T12:02:37.866Z,23.46
2018-09-17T12:07:42.921Z,23.49
2018-09-17T12:12:46.202Z,23.52
2018-09-17T12:17:49.603Z,23.55
2018-09-17T12:22:52.884Z,23.55
2018-09-17T12:27:56.267Z,23.52
2018-09-17T12:32:59.570Z,23.53
2018-09-17T12:38:02.866Z,23.52
2018-09-17T12:43:06.176Z,23.55
2018-09-17T12:48:09.467Z,23.56
2018-09-17T12:53:12.763Z,23.59
2018-09-17T12:58:16.050Z,23.61
2018-09-17T13:03:19.383Z,23.62
2018-09-17T13:08:22.647Z,23.64
2018-09-17T13:13:25.926Z,23.61
2018-09-17T13:18:29.208Z,23.61
2018-09-17T13:23:32.494Z,23.65
2018-09-17T13:28:35.783Z,23.65
2018-09-17T13:33:39.126Z,23.73
2018-09-17T13:38:42.451Z,23.74
2018-09-17T13:43:45.760Z,23.79
2018-09-17T13:48:49.042Z,23.85
2018-09-17T13:53:52.330Z,23.84
2018-09-17T13:58:55.631Z,23.88
2018-09-17T14:03:58.928Z,23.87
2018-09-17T14:09:02.394Z,23.94
2018-09-17T14:14:05.802Z,24.01
2018-09-17T14:19:09.092Z,24.07
2018-09-17T14:24:13.239Z,24.12
2018-09-17T14:29:16.542Z,24.03
2018-09-17T14:34:19.869Z,24.04
2018-09-17T14:39:23.154Z,24.12
2018-09-17T14:44:26.462Z,24.12
2018-09-17T14:49:29.770Z,24.14
2018-09-17T14:54:33.127Z,24.15
2018-09-17T14:59:36.364Z,24.17
2018-09-17T15:04:39.833Z,24.14
2018-09-17T15:09:43.677Z,24.13
2018-09-17T15:14:47.028Z,24.16
2018-09-17T15:19:50.302Z,24.12
2018-09-17T15:24:53.604Z,24.13
2018-09-17T15:29:56.894Z,24.12
2018-09-17T15:35:00.190Z,24.13
2018-09-17T15:40:03.558Z,24.12
2018-09-17T15:45:07.231Z,24.16
2018-09-17T15:50:10.551Z,24.15
2018-09-17T15:55:13.802Z,24.15
2018-09-17T16:00:17.263Z,24.17
2018-09-17T16:05:20.534Z,24.21
2018-09-17T16:10:23.835Z,24.21
2018-09-17T16:15:27.126Z,24.23
2018-09-17T16:20:30.435Z,24.24
2018-09-17T16:25:33.725Z,24.22
2018-09-17T16:30:37.015Z,24.23
2018-09-17T16:35:40.294Z,24.21
2018-09-17T16:40:43.598Z,24.23
2018-09-17T16:45:46.886Z,24.22
2018-09-17T16:50:50.307Z,24.21
2018-09-17T16:55:53.614Z,24.21
2018-09-17T17:00:57.013Z,24.20
2018-09-17T17:06:00.415Z,24.20
2018-09-17T17:11:03.699Z,24.18
2018-09-17T17:16:07.001Z,24.17
2018-09-17T17:21:10.292Z,24.17
2018-09-17T17:26:13.593Z,24.17
2018-09-17T17:31:16.890Z,24.18
2018-09-17T17:36:20.198Z,24.27
2018-09-17T17:41:24.350Z,24.27
2018-09-17T17:46:27.661Z,24.31
2018-09-17T17:51:30.950Z,24.42
2018-09-17T17:56:34.233Z,24.39
2018-09-17T18:01:37.854Z,24.38
2018-09-17T18:06:42.255Z,24.34
2018-09-17T18:11:45.751Z,24.33
2018-09-17T18:16:49.059Z,24.30
2018-09-17T18:21:52.330Z,24.30
2018-09-17T18:26:55.681Z,24.29
2018-09-17T18:31:59.087Z,24.37
2018-09-17T18:37:02.592Z,24.31
2018-09-17T18:42:05.898Z,24.31
2018-09-17T18:47:09.212Z,24.43
2018-09-17T18:52:12.492Z,24.40
2018-09-17T18:57:15.958Z,24.41
2018-09-17T19:02:19.300Z,24.37
2018-09-17T19:07:22.584Z,24.43
2018-09-17T19:12:26.090Z,24.37
2018-09-17T19:17:34.870Z,24.36
2018-09-17T19:22:43.571Z,24.34
2018-09-17T19:27:52.335Z,24.35
2018-09-17T19:32:55.771Z,24.29
2018-09-17T19:38:04.506Z,24.30
2018-09-17T19:43:08.307Z,24.28
2018-09-17T19:48:12.013Z,24.28
2018-09-17T19:53:15.491Z,24.27
2018-09-17T19:58:24.376Z,24.27
2018-09-17T20:03:27.851Z,24.23
2018-09-17T20:08:31.155Z,24.25
2018-09-17T20:13:34.790Z,24.22
2018-09-17T20:18:38.075Z,24.11
2018-09-17T20:23:41.362Z,24.08
2018-09-17T20:28:44.645Z,23.97
2018-09-17T20:33:47.931Z,23.95
2018-09-17T20:38:51.271Z,23.93
2018-09-17T20:43:54.643Z,23.90
2018-09-17T20:48:58.647Z,23.85
2018-09-17T20:54:01.939Z,23.82
2018-09-17T20:59:05.247Z,23.80
2018-09-17T21:04:08.538Z,23.77
2018-09-17T21:09:12.678Z,23.76
2018-09-17T21:14:15.965Z,23.74
2018-09-17T21:19:19.292Z,23.72
2018-09-17T21:24:22.595Z,23.68
2018-09-17T21:29:25.868Z,23.70
2018-09-17T21:34:29.190Z,23.61
2018-09-17T21:39:32.527Z,23.61
2018-09-17T21:44:35.819Z,23.60
2018-09-17T21:49:39.114Z,23.59
2018-09-17T21:54:42.544Z,23.56
2018-09-17T21:59:45.826Z,23.54
2018-09-17T22:04:49.113Z,23.52
2018-09-17T22:09:52.406Z,23.50
2018-09-17T22:14:55.790Z,23.50
2018-09-17T22:19:59.066Z,23.47
2018-09-17T22:25:02.490Z,23.47
2018-09-17T22:30:06.618Z,23.47
2018-09-17T22:35:09.934Z,23.45
2018-09-17T22:40:13.215Z,23.40
2018-09-17T22:45:16.522Z,23.42
2018-09-17T22:50:19.810Z,23.44
2018-09-17T22:55:23.095Z,23.41
2018-09-17T23:00:26.375Z,23.42
2018-09-17T23:05:29.654Z,23.40
2018-09-17T23:10:32.930Z,23.38
2018-09-17T23:15:36.201Z,23.37
2018-09-17T23:20:39.487Z,23.35
2018-09-17T23:25:42.767Z,23.34
2018-09-17T23:30:46.053Z,23.32
2018-09-17T23:35:49.336Z,23.30
2018-09-17T23:40:52.617Z,23.30
2018-09-17T23:45:55.994Z,23.28
2018-09-17T23:50:59.438Z,23.27
2018-09-17T23:56:02.720Z,23.25
